Tiempo atmosférico en la estación meteorológica de Machichaco, Bizkaia (93 m.)



Fecha
DESCASC
Temp. máxima en grados centígrados (hora)
DESCASC
Temp. mínima en grados centígrados (hora)
DESCASC
Temp. media en grados centígrados
DESCASC
Racha de viento máxima en m/sg (hora)
DESCASC
Velocidad máxima media en intervalos de 10 minutos(hora)
DESCASC
Precipitaciones diarias en mm
DESCASC
Precipitaciones de 00:00 a 06:00 en mm
DESCASC
Precipitaciones de 06:00 a 12:00 en mm
DESCASC
Precipitaciones de 12:00 a 18:00 en mm
DESCASC
Precipitaciones de 18:00 a 24:00 en mm
DESCASC
05-12-2019 13.1 (12:40) 8.5 (02:20) 10.8 8.61 (10:10) 5.83 (09:00) 0 0 0 0 0
04-12-2019 11.1 (18:20) 6.1 (00:10) 8.6 12.78 (18:20) 10.56 (16:50) 0 0 0 0 0
03-12-2019 8 (02:50) 6 (00:00) 7 8.89 (04:30) 6.67 (04:30) 0 0 0 0 0
02-12-2019 11.2 (05:00) 7.8 (00:00) 9.5 13.89 (09:10) 11.67 (09:20) 3 0.4 2.6 0 0
01-12-2019 14.7 (11:00) 9 (00:00) 11.8 13.61 (07:00) 9.44 (06:20) 16 0 0 0 16
30-11-2019 18.5 (09:10) 10.2 (00:00) 14.3 23.33 (10:50) 18.06 (10:50) 16.8 0 6.6 10.2 0
29-11-2019 16.6 (12:30) 12 (00:00) 14.3 14.72 (07:20) 11.11 (07:20) 0.6 0.4 0.2 0 0
28-11-2019 13.9 (14:50) 11.3 (00:00) 12.6 14.72 (08:40) 9.72 (08:40) 6.6 3 0.8 1.6 1.2
27-11-2019 15.7 (15:00) 11.9 (00:00) 13.8 15 (16:20) 11.94 (16:30) 1.4 0 0 1.2 0.2
26-11-2019 20.6 (13:30) 11.8 (00:00) 16.2 33.61 (21:10) 20 (21:20) 1.8 0 0 0 1.8
25-11-2019 16.5 (05:00) 12.9 (00:00) 14.7 16.67 (02:50) 11.39 (00:30) 0.2 0 0.2 0 0
24-11-2019 14.4 (15:20) 9.7 (00:00) 12 21.94 (05:20) 16.67 (05:20) 15.4 9 1 0 5.4
23-11-2019 14.7 (00:00) 9.2 (00:00) 11.9 45.28 (08:50) 35 (08:50) 41.6 13 12.2 2.8 13.6
22-11-2019 15.2 (12:30) 11.9 (00:00) 13.5 17.5 (23:00) 8.61 (23:20) 3 0 0 3 0
21-11-2019 14.6 (12:20) 10.1 (00:00) 12.4 15.56 (01:10) 10 (01:20) 0 0 0 0 0
20-11-2019 14.2 (15:10) 10.1 (00:00) 12.2 16.94 (11:10) 11.11 (11:10) 0 0 0 0 0
19-11-2019 12.3 (11:10) 7.4 (00:00) 9.9 12.78 (16:20) 8.89 (16:10) 0.2 0 0 0.2 0
18-11-2019 11.4 (14:30) 7.8 (00:00) 9.6 11.39 (03:30) 7.5 (02:10) 6 2.8 1.2 1.6 0.4
17-11-2019 11.6 (14:20) 8.4 (00:00) 10 24.17 (14:20) 16.39 (14:20) 31.8 5.8 4.6 11.2 10.2
16-11-2019 10.1 (15:20) 6.9 (00:00) 8.5 28.61 (10:30) 21.11 (11:20) 31.4 0 13.6 6.8 11
15-11-2019 11.1 (08:10) 6.2 (00:00) 8.7 26.39 (09:00) 21.94 (09:00) 16.6 3 4.2 6.2 3.2
14-11-2019 10.9 (00:20) 6.5 (00:00) 8.7 26.94 (00:20) 21.39 (00:20) 23.8 18 2.8 3 0
13-11-2019 13.4 (22:30) 10 (00:00) 11.7 28.33 (23:40) 20.28 (23:59) 6.4 2.2 0 0.2 4
12-11-2019 12.4 (16:30) 9.8 (00:00) 11.1 19.17 (12:10) 13.33 (12:10) 19.8 11 7 1.2 0.6
11-11-2019 13.3 (12:50) 9.6 (05:40) 11.5 25.28 (12:20) 19.72 (13:00) 5.8 5 0.4 0.4 0
10-11-2019 12.3 (00:20) 8.6 (00:00) 10.5 30.28 (07:10) 24.17 (07:00) 10.6 1.6 3.8 4.2 1
09-11-2019 14.6 (16:10) 10 (00:00) 12.3 36.94 (15:50) 30.28 (16:00) 20.2 1.4 2.8 6.2 9.8
08-11-2019 13.2 (15:50) 8.1 (00:00) 10.7 40.28 (11:00) 28.89 (11:20) 50.4 5.8 17.6 13.2 13.8

Gráficas

Temp. máximas Temp. mínimas Temp. medias Precipitaciones Rachas de viento máximas Velocidades máximas media en intervalos de 10 minutos

Datos horarios

Fecha y hora oficial Temperatura (ºC) Velocidad del viento (km/h) Dirección del viento Racha (km/h) Dirección de racha Precipitación (mm) Presión (hPa) Tendencia (hPa) Humedad (%)
2019-12-07 23:00:00 13.5 0 Calma 10 Sudoeste 0 -- -- 78
2019-12-07 22:00:00 12.7 2 Sudoeste 8 Sudoeste 0 -- -- 81
2019-12-07 21:00:00 11.9 5 Sur 12 Sudeste 0 -- -- 81
2019-12-07 20:00:00 12.3 6 Sudeste 12 Sur 0 -- -- 77
2019-12-07 19:00:00 12.7 0 Calma 7 Sudeste 0 -- -- 81
2019-12-07 18:00:00 12.9 6 Sudeste 10 Sur 0 -- -- 80
2019-12-07 17:00:00 13.7 5 Sudeste 8 Sudeste 0 -- -- 77
2019-12-07 16:00:00 14.2 4 Sudeste 6 Este 0 -- -- 75
2019-12-07 15:00:00 14.5 3 Nordeste 6 Noroeste 0 -- -- 72
2019-12-07 14:00:00 14.5 3 Nordeste 5 Este 0 -- -- 71
2019-12-07 13:00:00 15 2 Norte 5 Nordeste 0 -- -- 72
2019-12-07 12:00:00 13.9 3 Este 5 Nordeste 0 -- -- 76
2019-12-07 11:00:00 13.3 0 Calma 5 Noroeste 0 -- -- 80
2019-12-07 10:00:00 12.6 0 Calma 6 Noroeste 0 -- -- 81
2019-12-07 09:00:00 11.6 2 Oeste 9 Oeste 0 -- -- 81
2019-12-07 08:00:00 10.7 4 Sudoeste 9 Sudoeste 0 -- -- 81
2019-12-07 07:00:00 10 5 Sudoeste 11 Oeste 0 -- -- 83
2019-12-07 06:00:00 10.7 7 Oeste 14 Oeste 0 -- -- 83
2019-12-07 05:00:00 10.4 5 Oeste 13 Oeste 0 -- -- 85
2019-12-07 04:00:00 11.7 6 Oeste 24 Sudoeste 0 -- -- 78
2019-12-07 03:00:00 11.8 11 Oeste 23 Oeste 0 -- -- 77
2019-12-07 02:00:00 11.7 14 Sudoeste 28 Sudoeste 0 -- -- 80
2019-12-07 01:00:00 11.6 14 Oeste 28 Sudoeste 0 -- -- 84
2019-12-07 00:00:00 11.9 15 Oeste 31 Oeste 0 -- -- 85
2019-12-06 23:00:00 11.9 20 Oeste 32 Oeste 0 -- -- 85
2019-12-06 22:00:00 11.8 16 Oeste 34 Oeste 0 -- -- 81
2019-12-06 21:00:00 11.9 18 Oeste 28 Oeste 0 -- -- 82
2019-12-06 20:00:00 11.5 13 Oeste 27 Oeste 0 -- -- 79
2019-12-06 19:00:00 11.2 15 Oeste 33 Oeste 0 -- -- 85
2019-12-06 18:00:00 11 16 Oeste 33 Oeste 0 -- -- 83
2019-12-06 17:00:00 11.6 25 Oeste 30 Oeste 0 -- -- 79
2019-12-06 16:00:00 11.8 15 Oeste 23 Oeste 0 -- -- 83
2019-12-06 15:00:00 12.2 16 Oeste 22 Oeste 0 -- -- 81
2019-12-06 14:00:00 12.2 12 Oeste 22 Oeste 0 -- -- 80
2019-12-06 13:00:00 13.6 6 Oeste 10 Oeste 0 -- -- 67
2019-12-06 12:00:00 12.7 3 Norte 10 Oeste 0 -- -- 75
2019-12-06 11:00:00 11.5 5 Oeste 12 Sudoeste 0 -- -- 75
2019-12-06 10:00:00 11.7 5 Sudeste 17 Sudeste 0 -- -- 73
2019-12-06 09:00:00 10.3 12 Sudeste 24 Sudeste 0 -- -- 81
2019-12-06 08:00:00 9.6 9 Sudeste 16 Este 0 -- -- 83
2019-12-06 07:00:00 9.5 8 Sudeste 14 Sudeste 0 -- -- 85
2019-12-06 06:00:00 10 7 Sudeste 12 Sudeste 0 -- -- 88
2019-12-06 05:00:00 10.4 4 Sudeste 10 Sudeste 0 -- -- 87
2019-12-06 04:00:00 10 5 Sudeste 10 Sudeste 0 -- -- 89
2019-12-06 03:00:00 9.9 3 Sudeste 6 Sudoeste 0 -- -- 89
2019-12-06 02:00:00 10.1 3 Sudeste 7 Este 0 -- -- 90
2019-12-06 01:00:00 10.1 5 Sudeste 8 Sudeste 0 -- -- 89
2019-12-06 00:00:00 10.2 5 Sudeste 9 Sudeste 0 -- -- 88
2019-12-05 23:00:00 11 5 Sudeste 10 Sudeste 0 -- -- 85
2019-12-05 22:00:00 10.9 6 Este 12 Este 0 -- -- 86
2019-12-05 21:00:00 11.5 6 Nordeste 14 Nordeste 0 -- -- 84
2019-12-05 20:00:00 11.6 6 Norte 19 Nordeste 0 -- -- 83
2019-12-05 19:00:00 11.6 5 Norte 17 Norte 0 -- -- 85
2019-12-05 18:00:00 11.7 5 Norte 17 Norte 0 -- -- 86
2019-12-05 17:00:00 11.7 4 Norte 14 Norte 0 -- -- 85
2019-12-05 16:00:00 12.1 9 Norte 18 Nordeste 0 -- -- 86
2019-12-05 15:00:00 12.5 14 Nordeste 21 Nordeste 0 -- -- 85
2019-12-05 14:00:00 12.8 4 Norte 18 Oeste 0 -- -- 82
2019-12-05 13:00:00 12.8 9 Oeste 21 Sudoeste 0 -- -- 84
2019-12-05 12:00:00 12.4 15 Oeste 24 Sudoeste 0 -- -- 84
2019-12-05 11:00:00 10.9 17 Sudoeste 31 Oeste 0 -- -- 90
2019-12-05 10:00:00 10.3 20 Oeste 28 Sudoeste 0 -- -- 91
2019-12-05 09:00:00 10.1 21 Oeste 31 Sudoeste 0 -- -- 89
2019-12-05 08:00:00 9.8 8 Oeste 11 Oeste 0 -- -- 89
2019-12-05 07:00:00 9.4 5 Sudoeste 10 Noroeste 0 -- -- 91
2019-12-05 06:00:00 8.8 5 Este 13 Este 0 -- -- 90
2019-12-05 05:00:00 9.3 10 Este 21 Nordeste 0 -- -- 87
2019-12-05 04:00:00 9 15 Nordeste 21 Nordeste 0 -- -- 86
2019-12-05 03:00:00 8.5 5 Norte 16 Noroeste 0 -- -- 85
2019-12-05 02:00:00 8.9 7 Norte 19 Nordeste 0 -- -- 86
2019-12-05 01:00:00 9.4 6 Norte 15 Norte 0 -- -- 81
2019-12-05 00:00:00 8.9 11 Este 21 Este 0 -- -- 86
2019-12-04 23:00:00 9.4 6 Oeste 16 Oeste 0 -- -- 85
2019-12-04 22:00:00 8.5 8 Oeste 14 Oeste 0 -- -- 86
2019-12-04 21:00:00 8.1 3 Sudeste 10 Este 0 -- -- 84
2019-12-04 20:00:00 8.7 7 Nordeste 29 Nordeste 0 -- -- 83
2019-12-04 19:00:00 9.9 16 Nordeste 46 Oeste 0 -- -- 89
2019-12-04 18:00:00 10.9 31 Oeste 44 Noroeste 0 -- -- 80
2019-12-04 17:00:00 10.7 36 Oeste 46 Oeste 0 -- -- 79
2019-12-04 16:00:00 10.1 28 Oeste 35 Noroeste 0 -- -- 83
2019-12-04 15:00:00 10 20 Oeste 37 Oeste 0 -- -- 83
2019-12-04 14:00:00 10.1 19 Oeste 25 Oeste 0 -- -- 83
2019-12-04 13:00:00 10.6 3 Norte 6 Nordeste 0 -- -- 81
2019-12-04 12:00:00 10.5 6 Este 12 Este 0 -- -- 77
2019-12-04 11:00:00 10.4 8 Este 13 Sudeste 0 -- -- 73
2019-12-04 10:00:00 8.6 13 Sudeste 23 Este 0 -- -- 76
2019-12-04 09:00:00 7.5 12 Sudeste 18 Este 0 -- -- 81
2019-12-04 08:00:00 7.6 12 Sudeste 30 Sudeste 0 -- -- 77
2019-12-04 07:00:00 7 15 Sudeste 25 Sudeste 0 -- -- 80
2019-12-04 06:00:00 6.7 14 Sudeste 26 Sudeste 0 -- -- 84
2019-12-04 05:00:00 6.4 14 Sudeste 25 Sudeste 0 -- -- 87
2019-12-04 04:00:00 6.4 14 Sudeste 24 Sudeste 0 -- -- 86
2019-12-04 03:00:00 6.4 14 Sudeste 26 Este 0 -- -- 86
2019-12-04 02:00:00 6.3 14 Sudeste 22 Este 0 -- -- 77
2019-12-04 01:00:00 6.3 13 Sudeste 20 Sudeste 0 -- -- 72
2019-12-04 00:00:00 6.2 10 Sudeste 18 Sudeste 0 -- -- 73
2019-12-03 23:00:00 6.2 10 Sudeste 18 Sudeste 0 -- -- 75
2019-12-03 22:00:00 6.4 10 Sudeste 18 Sudeste 0 -- -- 76
2019-12-03 21:00:00 6.2 10 Sudeste 20 Sudeste 0 -- -- 83
2019-12-03 20:00:00 6.2 11 Sudeste 17 Sudeste 0 -- -- 84
2019-12-03 19:00:00 6.1 9 Sudeste 15 Sudeste 0 -- -- 85
2019-12-03 18:00:00 6.3 8 Sudeste 14 Este 0 -- -- 83
2019-12-03 17:00:00 6.9 4 Este 16 Nordeste 0 -- -- 81
2019-12-03 16:00:00 7.7 10 Este 18 Nordeste 0 -- -- 80
2019-12-03 15:00:00 7.5 10 Nordeste 19 Nordeste 0 -- -- 77
2019-12-03 14:00:00 7.5 12 Nordeste 20 Nordeste 0 -- -- 77
2019-12-03 13:00:00 7.5 15 Nordeste 25 Nordeste 0 -- -- 77
2019-12-03 12:00:00 7.8 11 Nordeste 19 Norte 0 -- -- 75
2019-12-03 11:00:00 7.7 12 Nordeste 22 Nordeste 0 -- -- 76
2019-12-03 10:00:00 7.6 13 Nordeste 23 Norte 0 -- -- 77
2019-12-03 09:00:00 7.5 13 Nordeste 22 Nordeste 0 -- -- 79
2019-12-03 08:00:00 7.4 15 Nordeste 24 Nordeste 0 -- -- 79
2019-12-03 07:00:00 7.4 18 Nordeste 30 Nordeste 0 -- -- 79
2019-12-03 06:00:00 7.5 19 Nordeste 32 Nordeste 0 -- -- 78
2019-12-03 05:00:00 7.6 22 Nordeste 32 Nordeste 0 -- -- 77
2019-12-03 04:00:00 7.8 17 Nordeste 31 Nordeste 0 -- -- 81
2019-12-03 03:00:00 7.9 15 Nordeste 30 Nordeste 0 -- -- 77
2019-12-03 02:00:00 7.8 22 Nordeste 30 Nordeste 0 -- -- 79
2019-12-03 01:00:00 7.8 7 Norte 28 Nordeste 0 -- -- 74
2019-12-03 00:00:00 7.8 21 Nordeste 32 Nordeste 0 -- -- 77
2019-12-02 23:00:00 8 21 Nordeste 35 Nordeste 0 -- -- 75
2019-12-02 22:00:00 8.1 18 Nordeste 31 Nordeste 0 -- -- 83
2019-12-02 21:00:00 8.3 22 Nordeste 32 Nordeste 0 -- -- 76
2019-12-02 20:00:00 8.3 18 Nordeste 33 Nordeste 0 -- -- 77
2019-12-02 19:00:00 8.2 14 Nordeste 29 Nordeste 0 -- -- 79
2019-12-02 18:00:00 8.1 14 Nordeste 26 Nordeste 0 -- -- 81
2019-12-02 17:00:00 8.3 9 Norte 29 Nordeste 0 -- -- 75
2019-12-02 16:00:00 8.1 13 Nordeste 33 Nordeste 0 -- -- 75
2019-12-02 15:00:00 8.3 19 Nordeste 34 Nordeste 0 -- -- 80
2019-12-02 14:00:00 8.7 18 Norte 37 Nordeste 0 -- -- 83
2019-12-02 13:00:00 9 25 Nordeste 39 Nordeste 0 -- -- 86
2019-12-02 12:00:00 9.6 30 Nordeste 41 Nordeste 0 -- -- 87
2019-12-02 11:00:00 10 35 Nordeste 47 Nordeste 0 -- -- 84
2019-12-02 10:00:00 10.2 37 Nordeste 50 Nordeste 0 -- -- 87
2019-12-02 09:00:00 10.4 35 Nordeste 46 Nordeste 2.6 -- -- 90
2019-12-02 08:00:00 10.8 26 Este 39 Este 0 -- -- 83
2019-12-02 07:00:00 10.7 29 Este 40 Este 0 -- -- 85
2019-12-02 06:00:00 11 29 Nordeste 40 Este 0 -- -- 86
2019-12-02 05:00:00 11.2 33 Este 44 Este 0 -- -- 86
2019-12-02 04:00:00 11.1 33 Este 42 Este 0 -- -- 88
2019-12-02 03:00:00 10.6 18 Este 38 Nordeste 0.4 -- -- 89
2019-12-02 02:00:00 10.8 31 Este 42 Este 0 -- -- 90
2019-12-02 01:00:00 10 12 Sudoeste 22 Oeste 0 -- -- 93
2019-12-02 00:00:00 9.6 12 Oeste 18 Oeste 0 -- -- 93
2019-12-01 23:00:00 9.7 10 Sudoeste 20 Sudoeste 0.2 -- -- 92
2019-12-01 22:00:00 9.2 12 Oeste 33 Oeste 6 -- -- 95
2019-12-01 21:00:00 9.7 16 Oeste 27 Oeste 4 -- -- 92
2019-12-01 20:00:00 10.5 6 Sudeste 15 Este 0 -- -- 83
2019-12-01 19:00:00 10.4 5 Nordeste 33 Nordeste 5.8 -- -- 88
2019-12-01 18:00:00 11.7 16 Nordeste 22 Nordeste 0 -- -- 85
2019-12-01 17:00:00 12.5 5 Nordeste 15 Nordeste 0 -- -- 77
2019-12-01 16:00:00 12.8 11 Nordeste 15 Nordeste 0 -- -- 74
2019-12-01 15:00:00 13.7 11 Oeste 20 Oeste 0 -- -- 71
2019-12-01 14:00:00 13.8 12 Oeste 16 Oeste 0 -- -- 68
2019-12-01 13:00:00 13.3 13 Oeste 18 Oeste 0 -- -- 68
2019-12-01 12:00:00 13.6 10 Oeste 26 Sudoeste 0 -- -- 62
2019-12-01 11:00:00 14.7 13 Sudoeste 34 Sudoeste 0 -- -- 56
2019-12-01 10:00:00 12.7 17 Sudoeste 40 Sudoeste 0 -- -- 60
2019-12-01 09:00:00 12.6 17 Sudoeste 46 Sur 0 -- -- 60
2019-12-01 08:00:00 12.4 28 Sudoeste 45 Sudoeste 0 -- -- 62
2019-12-01 07:00:00 12.2 33 Sudoeste 49 Sudoeste 0 -- -- 61
2019-12-01 06:00:00 11.6 33 Sur 48 Sudoeste 0 -- -- 63
2019-12-01 05:00:00 10.9 16 Sur 28 Sudoeste 0 -- -- 67
2019-12-01 04:00:00 11.1 8 Sudeste 21 Sur 0 -- -- 66
2019-12-01 03:00:00 11.7 10 Sur 22 Sur 0 -- -- 63
2019-12-01 02:00:00 12.1 13 Sur 27 Sudeste 0 -- -- 61
2019-12-01 01:00:00 12.3 13 Sur 22 Sur 0 -- -- 58
2019-12-01 00:00:00 10.5 5 Sudeste 12 Sur 0 -- -- 70
2019-11-30 23:00:00 10.9 8 Sur 12 Sur 0 -- -- 69
2019-11-30 22:00:00 10.6 5 Sur 22 Sudoeste 0 -- -- 75
2019-11-30 21:00:00 11.4 12 Oeste 29 Sudoeste 0 -- -- 76
2019-11-30 20:00:00 12.3 13 Sudoeste 26 Sudoeste 0 -- -- 68
2019-11-30 19:00:00 11.9 10 Sudoeste 31 Sudoeste 0 -- -- 74
2019-11-30 18:00:00 11.9 11 Sudoeste 25 Sudoeste 0 -- -- 75
2019-11-30 17:00:00 10.9 8 Sur 14 Sur 0.4 -- -- 85
2019-11-30 16:00:00 10.8 8 Sur 25 Sudoeste 1 -- -- 88
2019-11-30 15:00:00 11.2 15 Oeste 27 Sudoeste 2.6 -- -- 92
2019-11-30 14:00:00 11.1 17 Oeste 31 Oeste 3 -- -- 94
2019-11-30 13:00:00 11.3 16 Oeste 57 Oeste 3.2 -- -- 95
2019-11-30 12:00:00 11.7 49 Oeste 74 Oeste 0.6 -- -- 95
2019-11-30 11:00:00 11.7 63 Oeste 84 Oeste 4.6 -- -- 96
2019-11-30 10:00:00 15.1 35 Oeste 74 Oeste 1.4 -- -- 86
2019-11-30 09:00:00 18.2 23 Sudoeste 53 Sur 0 -- -- 62
2019-11-30 08:00:00 17.9 27 Sur 57 Sur 0 -- -- 65
2019-11-30 07:00:00 17.6 31 Sur 63 Sudoeste 0 -- -- 67
2019-11-30 06:00:00 17.6 36 Sur 58 Sudoeste 0 -- -- 68
2019-11-30 05:00:00 17.3 40 Sur 64 Sur 0 -- -- 65
2019-11-30 04:00:00 16.1 24 Sur 44 Sur 0 -- -- 70
2019-11-30 03:00:00 12.2 13 Sudeste 20 Sudeste 0 -- -- 81
2019-11-30 02:00:00 12.5 12 Sur 22 Sudeste 0 -- -- 78
2019-11-30 01:00:00 12 13 Sudeste 19 Sudeste 0 -- -- 82
2019-11-30 00:00:00 12 13 Sudeste 23 Sudeste 0 -- -- 83
2019-11-29 23:00:00 12.7 17 Sudeste 24 Este 0 -- -- 81
2019-11-29 22:00:00 12.8 15 Sudeste 25 Este 0 -- -- 85
2019-11-29 21:00:00 13 16 Sudeste 28 Este 0 -- -- 86
2019-11-29 20:00:00 12.9 12 Sudeste 20 Este 0 -- -- 86
2019-11-29 19:00:00 12.9 11 Este 17 Este 0 -- -- 87
2019-11-29 18:00:00 12.8 9 Este 14 Sudeste 0 -- -- 89
2019-11-29 17:00:00 13.4 5 Este 8 Este 0 -- -- 85
2019-11-29 16:00:00 15.7 4 Noroeste 11 Oeste 0 -- -- 76
2019-11-29 15:00:00 15.8 9 Oeste 15 Noroeste 0 -- -- 67
2019-11-29 14:00:00 15.9 9 Oeste 20 Noroeste 0 -- -- 72
2019-11-29 13:00:00 16.4 9 Oeste 20 Sudoeste 0 -- -- 69
2019-11-29 12:00:00 15.9 8 Sudoeste 24 Sudoeste 0 -- -- 73
2019-11-29 11:00:00 15.1 12 Sudoeste 23 Oeste 0 -- -- 81
2019-11-29 10:00:00 13.7 13 Oeste 32 Oeste 0 -- -- 87
2019-11-29 09:00:00 13.2 17 Oeste 37 Oeste 0 -- -- 90
2019-11-29 08:00:00 13.4 29 Oeste 53 Oeste 0 -- -- 93
2019-11-29 07:00:00 13.3 29 Oeste 50 Oeste 0.2 -- -- 92
2019-11-29 06:00:00 13.3 25 Oeste 37 Oeste 0 -- -- 92
2019-11-29 05:00:00 13.3 19 Oeste 36 Oeste 0 -- -- 93
2019-11-29 04:00:00 13 19 Oeste 34 Oeste 0 -- -- 96
2019-11-29 03:00:00 12.7 19 Oeste 33 Oeste 0 -- -- 97
2019-11-29 02:00:00 12.5 19 Oeste 30 Oeste 0 -- -- 96
2019-11-29 01:00:00 12.5 17 Oeste 28 Oeste 0.4 -- -- 96
2019-11-29 00:00:00 12.2 9 Oeste 12 Oeste 0.6 -- -- 96
2019-11-28 23:00:00 11.8 2 Sur 7 Sur 0.4 -- -- 92
2019-11-28 22:00:00 12.3 5 Sudeste 23 Sudeste 0.2 -- -- 84
2019-11-28 21:00:00 11.5 13 Sudeste 21 Sudeste 0 -- -- 89
2019-11-28 20:00:00 11.4 8 Sudeste 13 Sudeste 0 -- -- 90
2019-11-28 19:00:00 11.5 2 Noroeste 13 Sudoeste 0 -- -- 90
2019-11-28 18:00:00 11.5 10 Sudoeste 27 Sudoeste 0.8 -- -- 89
2019-11-28 17:00:00 12.3 22 Oeste 30 Oeste 0.8 -- -- 90
2019-11-28 16:00:00 13.4 17 Oeste 24 Oeste 0 -- -- 76
2019-11-28 15:00:00 13.8 4 Sudoeste 28 Oeste 0 -- -- 76
2019-11-28 14:00:00 13.6 18 Oeste 30 Oeste 0 -- -- 73
2019-11-28 13:00:00 13.2 16 Sudoeste 27 Oeste 0 -- -- 80
2019-11-28 12:00:00 13.1 15 Oeste 28 Oeste 0 -- -- 79
2019-11-28 11:00:00 12.9 19 Oeste 39 Oeste 0 -- -- 84
2019-11-28 10:00:00 12.6 23 Oeste 44 Oeste 0 -- -- 84
2019-11-28 09:00:00 12.3 24 Oeste 53 Oeste 0.2 -- -- 90
2019-11-28 08:00:00 12.1 22 Oeste 45 Oeste 0 -- -- 92
2019-11-28 07:00:00 12.6 21 Oeste 40 Sudoeste 0.6 -- -- 88
2019-11-28 06:00:00 12.4 21 Oeste 38 Oeste 1.4 -- -- 89
2019-11-28 05:00:00 12.3 19 Oeste 49 Oeste 1 -- -- 88
2019-11-28 04:00:00 12.8 22 Oeste 44 Oeste 0.4 -- -- 80
2019-11-28 03:00:00 11.6 0 Calma 15 Sudoeste 0 -- -- 82
2019-11-28 02:00:00 12.1 6 Sudoeste 20 Oeste 0.2 -- -- 83
2019-11-28 01:00:00 12.2 6 Sudoeste 15 Oeste 0 -- -- 81
2019-11-28 00:00:00 12.4 6 Sur 10 Sur 0 -- -- 80
2019-11-27 23:00:00 12.8 4 Sudoeste 14 Sur 0 -- -- 76
2019-11-27 22:00:00 13.1 8 Sudoeste 26 Oeste 0 -- -- 69
2019-11-27 21:00:00 13.3 12 Sudoeste 30 Sudoeste 0.2 -- -- 69
2019-11-27 20:00:00 13.1 15 Oeste 54 Sudoeste 0 -- -- 75
2019-11-27 19:00:00 14.2 21 Sudoeste 51 Sudoeste 0 -- -- 63
2019-11-27 18:00:00 13.3 10 Sudoeste 33 Sudoeste 0.2 -- -- 69
2019-11-27 17:00:00 12.5 23 Oeste 54 Noroeste 1 -- -- 86
2019-11-27 16:00:00 15.1 14 Oeste 28 Sudoeste 0 -- -- 71
2019-11-27 15:00:00 15.7 14 Sudoeste 29 Sudoeste 0 -- -- 59
2019-11-27 14:00:00 15.5 11 Sudoeste 27 Sudoeste 0 -- -- 59
2019-11-27 06:00:00 13.6 14 Sudoeste 28 Sudoeste 0 -- -- 58
2019-11-27 05:00:00 14 13 Oeste 32 Sudoeste 0 -- -- 70
2019-11-27 04:00:00 13.7 14 Sudoeste 36 Oeste 0 -- -- 72
2019-11-27 03:00:00 13.4 9 Sudoeste 20 Sudoeste 0 -- -- 73
2019-11-27 02:00:00 12.9 10 Sudoeste 25 Oeste 0 -- -- 79
2019-11-27 01:00:00 12.9 13 Sudoeste 29 Oeste 0 -- -- 79
2019-11-27 00:00:00 13 19 Sudoeste 30 Sudoeste 0 -- -- 82
2019-11-26 23:00:00 12.5 17 Sudoeste 57 Oeste 0 -- -- 89
2019-11-26 22:00:00 12.9 39 Oeste 121 Oeste 1.8 -- -- 93
2019-11-26 21:00:00 19.5 21 Sudoeste 58 Sudoeste 0 -- -- 49
2019-11-26 20:00:00 19.3 22 Sur 57 Sudoeste 0 -- -- 54
2019-11-26 19:00:00 18.2 14 Sur 45 Sudoeste 0 -- -- 72
2019-11-26 18:00:00 19.4 14 Sur 24 Sur 0 -- -- 62
2019-11-26 17:00:00 19.3 9 Sur 17 Sur 0 -- -- 61
2019-11-26 16:00:00 19.3 7 Sudeste 33 Sudoeste 0 -- -- 61
2019-11-26 15:00:00 19.7 5 Este 44 Sur 0 -- -- 61
2019-11-26 14:00:00 20.3 17 Sudoeste 41 Sur 0 -- -- 57
2019-11-26 13:00:00 20.5 17 Sudoeste 47 Sudoeste 0 -- -- 58
2019-11-26 12:00:00 20.1 30 Sur 67 Sudoeste 0 -- -- 58
2019-11-26 11:00:00 19.2 39 Sudoeste 68 Sur 0 -- -- 58
2019-11-26 10:00:00 18.7 44 Sudoeste 73 Sur 0 -- -- 58
2019-11-26 09:00:00 18.3 45 Sudoeste 68 Sur 0 -- -- 58
2019-11-26 08:00:00 18.2 42 Sudoeste 75 Sudoeste 0 -- -- 54
2019-11-26 07:00:00 17.3 50 Sudoeste 76 Sudoeste 0 -- -- 57
2019-11-26 06:00:00 17.3 53 Sur 77 Sur 0 -- -- 56
2019-11-26 05:00:00 17.9 51 Sur 72 Sudoeste 0 -- -- 51
2019-11-26 04:00:00 17.4 44 Sur 63 Sur 0 -- -- 51
2019-11-26 03:00:00 17.5 31 Sur 47 Sur 0 -- -- 50
2019-11-26 02:00:00 13.2 8 Sudeste 20 Sur 0 -- -- 79
2019-11-26 01:00:00 12.5 9 Sudeste 19 Sudeste 0 -- -- 86
2019-11-26 00:00:00 13.3 13 Sudeste 22 Sudeste 0 -- -- 83
2019-11-25 23:00:00 13.5 12 Sudeste 24 Sudeste 0 -- -- 83
2019-11-25 22:00:00 13.2 9 Sudeste 16 Sudeste 0 -- -- 86
2019-11-25 21:00:00 13 4 Sudeste 8 Sudeste 0 -- -- 85
2019-11-25 20:00:00 13.7 5 Sudoeste 17 Oeste 0 -- -- 84
2019-11-25 19:00:00 14 6 Sudoeste 23 Oeste 0 -- -- 84
2019-11-25 18:00:00 14.1 14 Oeste 26 Sudoeste 0 -- -- 83
2019-11-25 17:00:00 14.3 10 Sudoeste 19 Oeste 0 -- -- 83
2019-11-25 16:00:00 14.5 15 Oeste 23 Oeste 0 -- -- 84
2019-11-25 15:00:00 15.5 13 Oeste 24 Oeste 0 -- -- 80
2019-11-25 14:00:00 15.3 21 Oeste 27 Oeste 0 -- -- 82
2019-11-25 13:00:00 14.8 21 Oeste 33 Oeste 0 -- -- 86
2019-11-25 12:00:00 16.1 10 Oeste 17 Sudoeste 0 -- -- 73
2019-11-25 11:00:00 14.9 4 Sudoeste 17 Oeste 0 -- -- 79
2019-11-25 10:00:00 13.8 9 Oeste 21 Oeste 0 -- -- 87
2019-11-25 09:00:00 13.2 4 Sudeste 23 Oeste 0 -- -- 89
2019-11-25 08:00:00 13.9 24 Oeste 32 Oeste 0.2 -- -- 92
2019-11-25 07:00:00 14.9 17 Sudoeste 51 Sudoeste 0 -- -- 66
2019-11-25 06:00:00 15.4 25 Sudoeste 55 Sur 0 -- -- 65
2019-11-25 05:00:00 16.5 29 Sur 59 Sur 0 -- -- 57
2019-11-25 04:00:00 15.6 37 Sur 56 Sudoeste 0 -- -- 62
2019-11-25 03:00:00 15.4 37 Sur 60 Sudoeste 0 -- -- 62
2019-11-25 02:00:00 14.8 37 Sudoeste 53 Sur 0 -- -- 65
2019-11-25 01:00:00 15 38 Sudoeste 56 Sur 0 -- -- 64
2019-11-25 00:00:00 14.2 41 Sudoeste 63 Sudoeste 0 -- -- 68
2019-11-24 23:00:00 13.3 44 Sur 59 Sudoeste 1.2 -- -- 73
2019-11-24 22:00:00 12.2 37 Sudoeste 67 Sudoeste 4.2 -- -- 80
2019-11-24 21:00:00 13.9 46 Sur 70 Sudoeste 0 -- -- 59
2019-11-24 20:00:00 13.4 41 Sudoeste 65 Sur 0 -- -- 59
2019-11-24 19:00:00 13.1 19 Sur 40 Sur 0 -- -- 58
2019-11-24 18:00:00 12 4 Este 17 Sudeste 0 -- -- 66
2019-11-24 17:00:00 12.3 6 Sur 15 Sudeste 0 -- -- 72
2019-11-24 16:00:00 13 10 Sur 18 Sur 0 -- -- 71
2019-11-24 15:00:00 13.5 13 Sur 23 Sur 0 -- -- 66
2019-11-24 14:00:00 13.1 15 Sur 25 Sudoeste 0 -- -- 64
2019-11-24 13:00:00 12.1 14 Sudoeste 35 Sudoeste 0 -- -- 71
2019-11-24 12:00:00 11.2 19 Oeste 43 Oeste 0 -- -- 85
2019-11-24 11:00:00 11.2 26 Oeste 44 Oeste 0 -- -- 87
2019-11-24 10:00:00 10.5 26 Oeste 53 Oeste 0 -- -- 90
2019-11-24 09:00:00 10.8 32 Oeste 63 Oeste 0 -- -- 88
2019-11-24 08:00:00 10.5 31 Oeste 56 Oeste 1 -- -- 91
2019-11-24 07:00:00 10.8 29 Oeste 64 Oeste 0 -- -- 90
2019-11-24 06:00:00 10.4 34 Oeste 79 Oeste 3 -- -- 93
2019-11-24 05:00:00 11.1 36 Oeste 72 Oeste 0 -- -- 88
2019-11-24 04:00:00 11 41 Oeste 70 Oeste 0.4 -- -- 90
2019-11-24 03:00:00 10.4 37 Oeste 62 Oeste 0.2 -- -- 90
2019-11-24 02:00:00 10.3 31 Oeste 66 Oeste 0.4 -- -- 92
2019-11-24 01:00:00 9.7 33 Oeste 69 Oeste 5 -- -- 94
2019-11-24 00:00:00 10.2 38 Oeste 75 Oeste 0.8 -- -- 89
2019-11-23 23:00:00 9.5 59 Oeste 96 Oeste 4.8 -- -- 96
2019-11-23 22:00:00 10.5 63 Oeste 100 Oeste 1.2 -- -- 88
2019-11-23 21:00:00 10.5 49 Oeste 92 Oeste 0.2 -- -- 87
2019-11-23 20:00:00 10.4 60 Oeste 95 Oeste 0.2 -- -- 90
2019-11-23 19:00:00 10.5 48 Oeste 100 Oeste 6.4 -- -- 92
2019-11-23 18:00:00 10.7 70 Oeste 100 Oeste 1.2 -- -- 90
2019-11-23 17:00:00 12.3 74 Oeste 106 Oeste 0.6 -- -- 76
2019-11-23 16:00:00 12.6 73 Oeste 105 Noroeste 0 -- -- 76
2019-11-23 15:00:00 11.8 82 Oeste 114 Oeste 0 -- -- 78
2019-11-23 14:00:00 11.9 93 Oeste 119 Oeste 1 -- -- 80
2019-11-23 13:00:00 12.3 93 Oeste 122 Oeste 0 -- -- 76
2019-11-23 12:00:00 12.2 98 Oeste 128 Oeste 0 -- -- 79
2019-11-23 11:00:00 11.9 103 Oeste 142 Oeste 0.8 -- -- 81
2019-11-23 10:00:00 11.6 121 Oeste 159 Oeste 1.2 -- -- 85
2019-11-23 09:00:00 10.8 118 Oeste 163 Oeste 7.2 -- -- 98
2019-11-23 08:00:00 11.1 121 Oeste 163 Oeste 1.6 -- -- 95
2019-11-23 07:00:00 12 116 Oeste 145 Oeste 1.4 -- -- 91
2019-11-23 06:00:00 11.5 79 Oeste 114 Oeste 8.2 -- -- 98
2019-11-23 05:00:00 10.2 27 Sudoeste 45 Sudoeste 3.6 -- -- 87
2019-11-23 04:00:00 11.3 14 Sudoeste 35 Oeste 1.2 -- -- 81
2019-11-23 03:00:00 13.6 17 Oeste 41 Sudoeste 0 -- -- 72
2019-11-23 02:00:00 14.4 17 Sudoeste 52 Sur 0 -- -- 55
2019-11-23 01:00:00 14.6 20 Sudoeste 49 Sudoeste 0 -- -- 56
2019-11-23 00:00:00 14.7 24 Sudoeste 53 Sudoeste 0 -- -- 55
2019-11-22 23:00:00 14.8 28 Sudoeste 63 Sudoeste 0 -- -- 55
2019-11-22 22:00:00 14.8 22 Sur 54 Sudoeste 0 -- -- 54
2019-11-22 21:00:00 14.8 19 Sur 43 Sudoeste 0 -- -- 58
2019-11-22 20:00:00 14.4 12 Sur 31 Oeste 0 -- -- 65
2019-11-22 19:00:00 14.6 15 Sudoeste 32 Sur 0 -- -- 64
2019-11-22 18:00:00 14.3 17 Sur 39 Sudoeste 0 -- -- 66
2019-11-22 17:00:00 14.2 19 Sur 56 Sur 0 -- -- 66
2019-11-22 16:00:00 14.7 24 Sur 57 Sudeste 0 -- -- 66
2019-11-22 15:00:00 13.4 23 Sur 61 Sur 1.6 -- -- 71
2019-11-22 14:00:00 13.2 12 Sudeste 41 Sur 1.4 -- -- 70
2019-11-22 13:00:00 14.9 12 Sudoeste 42 Sur 0 -- -- 57
2019-11-22 12:00:00 15 15 Sudeste 41 Sur 0 -- -- 56
2019-11-22 11:00:00 13.8 11 Sudeste 43 Sudoeste 0 -- -- 59
2019-11-22 10:00:00 13.1 13 Sur 33 Sudoeste 0 -- -- 62
2019-11-22 09:00:00 13 8 Sur 40 Sur 0 -- -- 58
2019-11-22 08:00:00 13.2 15 Sur 44 Sudeste 0 -- -- 55
2019-11-22 07:00:00 12.4 11 Sur 29 Sudeste 0 -- -- 57
2019-11-22 06:00:00 12 8 Este 31 Sur 0 -- -- 59
2019-11-22 05:00:00 12.1 5 Este 24 Sudoeste 0 -- -- 57
2019-11-22 04:00:00 12.7 14 Sur 35 Sur 0 -- -- 55
2019-11-22 03:00:00 12.4 17 Sur 38 Sur 0 -- -- 55
2019-11-22 02:00:00 12.4 18 Sur 46 Sudoeste 0 -- -- 56
2019-11-22 01:00:00 12.3 18 Sur 43 Sur 0 -- -- 56
2019-11-22 00:00:00 12.5 22 Sur 41 Sur 0 -- -- 52
2019-11-21 23:00:00 12.2 22 Sur 36 Sur 0 -- -- 51
2019-11-21 22:00:00 11.9 14 Sur 22 Sur 0 -- -- 54
2019-11-21 21:00:00 11.2 9 Sudeste 16 Sudeste 0 -- -- 66
2019-11-21 20:00:00 10.9 6 Sudeste 10 Sudeste 0 -- -- 71
2019-11-21 19:00:00 10.2 3 Sudeste 6 Oeste 0 -- -- 74
2019-11-21 18:00:00 11.3 5 Sudoeste 23 Oeste 0 -- -- 69
2019-11-21 17:00:00 13 19 Oeste 26 Oeste 0 -- -- 66
2019-11-21 16:00:00 13.8 17 Oeste 24 Oeste 0 -- -- 57
2019-11-21 15:00:00 13.6 18 Oeste 25 Oeste 0 -- -- 57
2019-11-21 14:00:00 13.3 14 Oeste 21 Oeste 0 -- -- 66
2019-11-21 13:00:00 14.3 8 Sudoeste 33 Oeste 0 -- -- 56
2019-11-21 12:00:00 14.3 13 Sudoeste 31 Sur 0 -- -- 54
2019-11-21 11:00:00 13.6 13 Sur 34 Sur 0 -- -- 56
2019-11-21 10:00:00 12.4 22 Sur 40 Sudoeste 0 -- -- 58
2019-11-21 09:00:00 11.7 21 Sur 39 Sudoeste 0 -- -- 59
2019-11-21 08:00:00 -- -- -- -- -- -- -- -- --
2019-11-21 07:00:00 -- -- -- -- -- -- -- -- --
2019-11-21 06:00:00 -- -- -- -- -- -- -- -- --
2019-11-21 05:00:00 -- -- -- -- -- -- -- -- --
2019-11-21 04:00:00 -- -- -- -- -- -- -- -- --
2019-11-21 03:00:00 -- -- -- -- -- -- -- -- --
2019-11-21 02:00:00 -- -- -- -- -- -- -- -- --
2019-11-21 01:00:00 -- -- -- -- -- -- -- -- --
2019-11-21 00:00:00 -- -- -- -- -- -- -- -- --
2019-11-20 23:00:00 -- -- -- -- -- -- -- -- --
2019-11-20 22:00:00 -- -- -- -- -- -- -- -- --
2019-11-20 21:00:00 -- -- -- -- -- -- -- -- --
2019-11-20 20:00:00 -- -- -- -- -- -- -- -- --
2019-11-20 19:00:00 11.8 27 Sur 50 Sur 0 -- -- 61
2019-11-20 18:00:00 11.8 22 Sur 49 Sur 0 -- -- 63
2019-11-20 17:00:00 12.8 32 Sur 59 Sur 0 -- -- 57
2019-11-20 16:00:00 13.4 29 Sudoeste 58 Sur 0 -- -- 54
2019-11-20 15:00:00 13.9 32 Sudoeste 60 Sur 0 -- -- 52
2019-11-20 14:00:00 13.7 33 Sur 55 Sudoeste 0 -- -- 52
2019-11-20 13:00:00 13.8 33 Sudoeste 61 Sudoeste 0 -- -- 51
2019-11-20 12:00:00 13.2 33 Sudoeste 61 Sur 0 -- -- 52
2019-11-20 11:00:00 12.4 39 Sur 56 Sur 0 -- -- 53
2019-11-20 10:00:00 12 33 Sur 55 Sur 0 -- -- 55
2019-11-20 09:00:00 11.9 35 Sur 50 Sur 0 -- -- 55
2019-11-20 08:00:00 11.5 30 Sur 48 Sur 0 -- -- 57
2019-11-20 07:00:00 11.3 26 Sur 42 Sur 0 -- -- 58
2019-11-20 06:00:00 10.8 21 Sur 39 Sur 0 -- -- 61
2019-11-20 05:00:00 11 24 Sur 42 Sudoeste 0 -- -- 58
2019-11-20 04:00:00 10.9 27 Sur 44 Sudoeste 0 -- -- 58
2019-11-20 03:00:00 11 23 Sur 44 Sur 0 -- -- 55
2019-11-20 02:00:00 10.9 27 Sudoeste 45 Sudoeste 0 -- -- 55
2019-11-20 01:00:00 10.8 27 Sudoeste 40 Sur 0 -- -- 56
2019-11-20 00:00:00 10.1 17 Sur 31 Sur 0 -- -- 60
2019-11-19 23:00:00 8.4 3 Sudeste 13 Sudeste -- -- -- 75
2019-11-19 22:00:00 8.7 9 Sudeste 17 Sudeste 0 -- -- 75
2019-11-19 21:00:00 9.2 10 Sudeste 18 Este 0 -- -- 76
2019-11-19 20:00:00 9.2 9 Sudeste 18 Sudeste 0 -- -- 76
2019-11-19 19:00:00 9.2 9 Sudeste 21 Sudeste 0 -- -- 78
2019-11-19 18:00:00 9.6 12 Sudeste 28 Este 0 -- -- 76
2019-11-19 17:00:00 10.6 20 Este 46 Este 0 -- -- 74
2019-11-19 16:00:00 11.2 31 Este 44 Este 0 -- -- 69
2019-11-19 15:00:00 11.5 27 Este 36 Este 0 -- -- 70
2019-11-19 14:00:00 12 18 Este 27 Este 0 -- -- 69
2019-11-19 13:00:00 11.9 15 Este 22 Este 0.2 -- -- 70
2019-11-19 12:00:00 11.9 10 Este 18 Este 0 -- -- 75
2019-11-19 11:00:00 11.9 6 Sudeste 14 Sur 0 -- -- 74
2019-11-19 10:00:00 10.5 0 Calma 10 Sur 0 -- -- 81
2019-11-19 09:00:00 9.2 5 Sudeste 15 Sudeste 0 -- -- 81
2019-11-19 08:00:00 7.4 10 Sudeste 14 Sudeste 0 -- -- 87
2019-11-19 07:00:00 8.2 0 Calma 4 Sudoeste 0 -- -- 86
2019-11-19 06:00:00 8.2 2 Sudoeste 7 Oeste 0 -- -- 85
2019-11-19 05:00:00 7.4 4 Sur 8 Sudoeste 0 -- -- 88
2019-11-19 04:00:00 8 5 Sur 19 Sudoeste 0 -- -- 87
2019-11-19 03:00:00 8.4 8 Sudoeste 12 Oeste 0 -- -- 88
2019-11-19 02:00:00 8.3 3 Sur 12 Sur 0 -- -- 90
2019-11-19 01:00:00 8.5 7 Sudoeste 13 Oeste 0 -- -- 87
2019-11-19 00:00:00 8 3 Sudoeste 11 Oeste 0 -- -- 88
2019-11-18 23:00:00 8.4 8 Sudoeste 21 Oeste 0 -- -- 86
2019-11-18 22:00:00 8.5 7 Sudoeste 18 Oeste 0 -- -- 87
2019-11-18 21:00:00 8.6 16 Oeste 29 Oeste 0 -- -- 89
2019-11-18 20:00:00 8.2 0 Calma 13 Oeste 0 -- -- 87
2019-11-18 19:00:00 9.1 3 Este 12 Sudeste 0.4 -- -- 85
2019-11-18 18:00:00 9.4 8 Sudeste 20 Noroeste 0.2 -- -- 85
2019-11-18 17:00:00 10.3 12 Noroeste 19 Noroeste 0 -- -- 70
2019-11-18 16:00:00 10.1 5 Noroeste 12 Oeste 0 -- -- 77
2019-11-18 15:00:00 10.4 0 Calma 8 Sudeste 0 -- -- 77
2019-11-18 14:00:00 9.9 4 Este 12 Este 0 -- -- 82
2019-11-18 13:00:00 10.8 9 Este 28 Nordeste 1.4 -- -- 79
2019-11-18 12:00:00 9.7 12 Norte 28 Noroeste 0.2 -- -- 78
2019-11-18 11:00:00 10.2 21 Nordeste 32 Nordeste 0 -- -- 80
2019-11-18 10:00:00 9.9 7 Norte 20 Norte 0 -- -- 76
2019-11-18 09:00:00 9.1 7 Norte 33 Nordeste 1 -- -- 80
2019-11-18 08:00:00 9.4 13 Noroeste 27 Nordeste 0 -- -- 72
2019-11-18 07:00:00 8.9 9 Noroeste 21 Nordeste 0 -- -- 82
2019-11-18 06:00:00 8.8 9 Noroeste 34 Oeste 0.6 -- -- 81
2019-11-18 05:00:00 8.7 15 Noroeste 40 Noroeste 2 -- -- 83
2019-11-18 04:00:00 9.9 15 Noroeste 41 Noroeste 0 -- -- 76
2019-11-18 03:00:00 9.8 16 Noroeste 37 Noroeste 0 -- -- 79
2019-11-18 02:00:00 10.3 24 Noroeste 37 Noroeste 0.2 -- -- 73
2019-11-18 01:00:00 10 15 Noroeste 29 Noroeste 0 -- -- 76
2019-11-18 00:00:00 10 12 Norte 30 Oeste 0.2 -- -- 85
2019-11-17 23:00:00 8.8 18 Oeste 33 Oeste 3 -- -- 94
2019-11-17 22:00:00 8.6 10 Sudoeste 29 Sudoeste 1.6 -- -- 94
2019-11-17 21:00:00 9 16 Oeste 67 Oeste 2.6 -- -- 94
2019-11-17 20:00:00 8.7 49 Noroeste 71 Oeste 1.6 -- -- 93
2019-11-17 19:00:00 10.2 28 Oeste 63 Oeste 1.2 -- -- 87
2019-11-17 18:00:00 10.4 33 Oeste 67 Oeste 0.2 -- -- 83
2019-11-17 17:00:00 10.4 35 Oeste 74 Oeste 0.8 -- -- 85
2019-11-17 16:00:00 10.5 33 Oeste 66 Oeste 3.2 -- -- 87
2019-11-17 15:00:00 10.7 47 Oeste 87 Oeste 2.8 -- -- 92
2019-11-17 14:00:00 11 29 Oeste 56 Sudoeste 3.2 -- -- 88
2019-11-17 13:00:00 10.1 28 Sudoeste 55 Sudoeste 1 -- -- 91
2019-11-17 12:00:00 9.9 17 Sudoeste 46 Oeste 0.8 -- -- 87
2019-11-17 11:00:00 9.1 22 Sur 34 Sur 1.2 -- -- 87
2019-11-17 10:00:00 9.3 21 Sudoeste 49 Sudoeste 2.6 -- -- 86
2019-11-17 09:00:00 10.1 19 Sudoeste 34 Sudoeste 0 -- -- 80
2019-11-17 08:00:00 9.5 17 Sudoeste 38 Sudoeste 0 -- -- 87
2019-11-17 07:00:00 9.1 17 Sudoeste 35 Sudoeste 0 -- -- 90
2019-11-17 06:00:00 8.8 18 Sudoeste 38 Sudoeste 0.2 -- -- 92
2019-11-17 05:00:00 8.7 21 Sudoeste 44 Sudoeste 0.4 -- -- 92
2019-11-17 04:00:00 8.4 26 Sudoeste 47 Sudoeste 2 -- -- 92
2019-11-17 03:00:00 8.5 15 Sudoeste 41 Sudoeste 1.6 -- -- 92
2019-11-17 02:00:00 8.4 25 Oeste 49 Oeste 1.2 -- -- 90
2019-11-17 01:00:00 8.8 25 Sudoeste 49 Sudoeste 0.4 -- -- 87
2019-11-17 00:00:00 8.4 21 Oeste 53 Oeste 0.4 -- -- 87
2019-11-16 23:00:00 8.3 23 Oeste 53 Oeste 1 -- -- 89
2019-11-16 22:00:00 8.4 32 Oeste 57 Oeste 1 -- -- 87
2019-11-16 21:00:00 9.1 32 Oeste 77 Oeste 1.2 -- -- 85
2019-11-16 20:00:00 8.5 28 Oeste 72 Oeste 6.6 -- -- 90
2019-11-16 19:00:00 8.9 29 Oeste 77 Oeste 0.8 -- -- 89
2019-11-16 18:00:00 9.1 41 Oeste 72 Oeste 0.6 -- -- 86
2019-11-16 17:00:00 9 37 Oeste 75 Oeste 0.4 -- -- 88
2019-11-16 16:00:00 9.1 58 Oeste 102 Oeste 1.4 -- -- 92
2019-11-16 15:00:00 9.8 47 Oeste 79 Oeste 0.4 -- -- 88
2019-11-16 14:00:00 9.1 37 Oeste 95 Oeste 0.6 -- -- 90
2019-11-16 13:00:00 9 36 Oeste 69 Oeste 3.4 -- -- 91
2019-11-16 12:00:00 8 24 Oeste 97 Oeste 3.4 -- -- 94
2019-11-16 11:00:00 7.8 57 Oeste 103 Oeste 5 -- -- 97
2019-11-16 10:00:00 7.9 31 Oeste 70 Sudoeste 3.2 -- -- 92
2019-11-16 09:00:00 7.8 25 Oeste 66 Sudoeste 2 -- -- 90
2019-11-16 08:00:00 8.5 30 Sudoeste 60 Sudoeste 0 -- -- 78
2019-11-16 07:00:00 8.6 28 Sudoeste 57 Sudoeste 0 -- -- 78
2019-11-16 06:00:00 8.1 27 Oeste 51 Oeste 0 -- -- 78
2019-11-16 05:00:00 7.3 26 Oeste 46 Oeste 0 -- -- 78
2019-11-16 04:00:00 7.4 24 Oeste 48 Oeste 0 -- -- 78
2019-11-16 03:00:00 7.3 23 Oeste 41 Sudoeste 0 -- -- 79
2019-11-16 02:00:00 7.2 24 Oeste 43 Sudoeste 0 -- -- 79
2019-11-16 01:00:00 7.2 23 Oeste 42 Oeste 0 -- -- 78
2019-11-16 00:00:00 6.9 23 Oeste 40 Oeste 0 -- -- 83
2019-11-15 23:00:00 7.3 26 Oeste 46 Sudoeste 0 -- -- 85
2019-11-15 22:00:00 7 26 Sudoeste 45 Oeste 0 -- -- 85
2019-11-15 21:00:00 7.4 19 Oeste 46 Sudoeste 0 -- -- 86
2019-11-15 20:00:00 7.5 22 Oeste 43 Sudoeste 0.8 -- -- 85
2019-11-15 19:00:00 6.2 8 Sur 21 Sudoeste 2.4 -- -- 91
2019-11-15 18:00:00 6.7 14 Sur 34 Sudoeste 2.6 -- -- 86
2019-11-15 17:00:00 7.2 23 Oeste 45 Oeste 1.4 -- -- 88
2019-11-15 16:00:00 7.7 25 Oeste 67 Oeste 0.4 -- -- 88
2019-11-15 15:00:00 9.6 39 Oeste 61 Oeste 0 -- -- 81
2019-11-15 14:00:00 9.3 21 Noroeste 54 Noroeste 1.8 -- -- 79
2019-11-15 13:00:00 10.8 15 Noroeste 33 Noroeste 0 -- -- 69
2019-11-15 12:00:00 10.4 12 Noroeste 28 Norte 0 -- -- 71
2019-11-15 11:00:00 9.8 16 Norte 38 Norte 1.8 -- -- 77
2019-11-15 10:00:00 9.6 20 Noroeste 93 Oeste 0.4 -- -- 85
2019-11-15 09:00:00 10.5 79 Oeste 95 Oeste 0 -- -- 77
2019-11-15 08:00:00 10.7 71 Oeste 90 Oeste 0 -- -- 74
2019-11-15 07:00:00 10.3 64 Oeste 83 Noroeste 2 -- -- 77
2019-11-15 06:00:00 7.7 30 Oeste 60 Oeste 0.4 -- -- 90
2019-11-15 05:00:00 7.5 23 Sudoeste 53 Sudoeste 2 -- -- 87
2019-11-15 04:00:00 7.5 23 Sudoeste 51 Sudoeste 0 -- -- 82
2019-11-15 03:00:00 7 23 Sudoeste 52 Sudoeste 0.6 -- -- 84
2019-11-15 02:00:00 8 22 Oeste 51 Oeste 0 -- -- 77
2019-11-15 01:00:00 8.3 22 Oeste 46 Sudoeste 0 -- -- 77
2019-11-15 00:00:00 8.8 27 Oeste 51 Oeste 0 -- -- 82
2019-11-14 23:00:00 8.7 28 Oeste 57 Oeste 0 -- -- 83
2019-11-14 22:00:00 8.1 36 Oeste 51 Oeste 0 -- -- 83
2019-11-14 21:00:00 8.1 35 Oeste 59 Oeste 0 -- -- 87
2019-11-14 20:00:00 8.7 44 Oeste 61 Oeste 0 -- -- 83
2019-11-14 19:00:00 8.7 32 Oeste 47 Oeste 0 -- -- 79
2019-11-14 18:00:00 8.1 15 Oeste 24 Oeste 0.6 -- -- 85
2019-11-14 17:00:00 8 19 Noroeste 44 Noroeste 1.2 -- -- 81
2019-11-14 16:00:00 8.4 27 Oeste 45 Noroeste 1.2 -- -- 83
2019-11-14 15:00:00 9.7 19 Oeste 40 Oeste 0 -- -- 75
2019-11-14 14:00:00 9.6 28 Noroeste 52 Noroeste 0 -- -- 80
2019-11-14 13:00:00 10.5 13 Sudoeste 35 Sudoeste 0 -- -- 62
2019-11-14 12:00:00 9.4 19 Sudoeste 35 Sudoeste 0 -- -- 61
2019-11-14 11:00:00 9.7 14 Sudoeste 53 Sudoeste 0 -- -- 64
2019-11-14 10:00:00 7.7 18 Sudoeste 49 Sudoeste 0.2 -- -- 74
2019-11-14 09:00:00 7.3 29 Sudoeste 59 Oeste 1.6 -- -- 82
2019-11-14 08:00:00 6.7 27 Sudoeste 58 Oeste 0.4 -- -- 84
2019-11-14 07:00:00 7.4 28 Oeste 63 Oeste 0.6 -- -- 85
2019-11-14 06:00:00 7 31 Oeste 67 Oeste 0.2 -- -- 84
2019-11-14 05:00:00 7.1 29 Oeste 79 Oeste 2.6 -- -- 87
2019-11-14 04:00:00 7.6 62 Oeste 91 Oeste 5 -- -- 95
2019-11-14 03:00:00 7.6 66 Oeste 89 Oeste 5.2 -- -- 95
2019-11-14 02:00:00 8.6 63 Oeste 89 Oeste 4.2 -- -- 95
2019-11-14 01:00:00 10.1 71 Oeste 97 Oeste 0.8 -- -- 85
2019-11-14 00:00:00 10.2 73 Oeste -- -- 4 -- -- 93
2019-11-13 23:00:00 13.3 24 Sudoeste 58 Sudoeste 0 -- -- 61
2019-11-13 22:00:00 12.8 24 Sudoeste 57 Sudoeste 0 -- -- 64
2019-11-13 21:00:00 12.1 17 Sudoeste 45 Oeste 0 -- -- 71
2019-11-13 20:00:00 11.7 19 Sudoeste 41 Sudoeste 0 -- -- 81
2019-11-13 19:00:00 11.6 19 Oeste 38 Oeste 0 -- -- 77
2019-11-13 18:00:00 10.8 10 Sudoeste 25 Sudoeste 0 -- -- 80
2019-11-13 17:00:00 11.7 14 Oeste 36 Oeste 0.2 -- -- 81
2019-11-13 16:00:00 12.1 17 Oeste 39 Oeste 0 -- -- 79
2019-11-13 15:00:00 12.6 37 Oeste 50 Oeste 0 -- -- 74
2019-11-13 14:00:00 12.8 34 Oeste 54 Oeste 0 -- -- 71
2019-11-13 13:00:00 12.7 32 Oeste 40 Oeste 0 -- -- 68
2019-11-13 12:00:00 12.8 32 Oeste 45 Oeste 0 -- -- 66
2019-11-13 11:00:00 12.6 32 Noroeste 41 Noroeste 0 -- -- 69
2019-11-13 10:00:00 12.5 16 Noroeste 24 Noroeste 0 -- -- 71
2019-11-13 09:00:00 12.3 6 Noroeste 22 Nordeste 0 -- -- 81
2019-11-13 08:00:00 12.1 21 Nordeste 29 Nordeste 0 -- -- 84
2019-11-13 07:00:00 12.3 10 Norte 41 Nordeste 0 -- -- 80
2019-11-13 06:00:00 11.5 18 Norte 45 Nordeste 0.2 -- -- 88
2019-11-13 05:00:00 11.2 23 Nordeste 34 Nordeste 1.4 -- -- 94
2019-11-13 04:00:00 11.2 9 Sudoeste 14 Oeste 0.4 -- -- 91
2019-11-13 03:00:00 10.9 0 Calma 11 Sudeste 0 -- -- 85
2019-11-13 02:00:00 10.3 6 Sudeste 10 Este 0 -- -- 86
2019-11-13 01:00:00 10 5 Sudeste 9 Sudeste 0.2 -- -- 88
2019-11-13 00:00:00 10.3 6 Sudeste 11 Sudeste 0 -- -- 87
2019-11-12 23:00:00 10.9 4 Este 17 Noroeste 0 -- -- 86
2019-11-12 22:00:00 11.4 13 Sur 33 Sur 0 -- -- 80
2019-11-12 21:00:00 10.8 12 Sur 25 Sur 0.2 -- -- 84
2019-11-12 20:00:00 10.8 9 Sudoeste 14 Sur 0.2 -- -- 83
2019-11-12 19:00:00 11.1 6 Sudoeste 20 Oeste 0.2 -- -- 84
2019-11-12 18:00:00 11.7 11 Oeste 22 Oeste 0 -- -- 83
2019-11-12 17:00:00 12.3 11 Oeste 24 Sudoeste 0 -- -- 79
2019-11-12 16:00:00 12 12 Oeste 32 Oeste 0 -- -- 84
2019-11-12 15:00:00 11.8 31 Oeste 58 Oeste 0 -- -- 89
2019-11-12 14:00:00 12.1 46 Oeste 63 Oeste 0 -- -- 82
2019-11-12 13:00:00 11.1 18 Oeste 69 Oeste 1.2 -- -- 88
2019-11-12 12:00:00 11.4 36 Oeste 66 Oeste 0.6 -- -- 88
2019-11-12 11:00:00 11.2 32 Oeste 65 Oeste 1.2 -- -- 87
2019-11-12 10:00:00 10.6 26 Oeste 64 Oeste 0.8 -- -- 90
2019-11-12 09:00:00 10.7 31 Oeste 57 Oeste 2.4 -- -- 91
2019-11-12 08:00:00 10.2 27 Oeste 51 Sudoeste 0.8 -- -- 91
2019-11-12 07:00:00 10.8 23 Oeste 63 Oeste 1.2 -- -- 92
2019-11-12 06:00:00 10.2 28 Oeste 59 Oeste 5.8 -- -- 93
2019-11-12 05:00:00 10.2 25 Oeste 50 Oeste 0.2 -- -- 92
2019-11-12 04:00:00 9.8 34 Oeste 53 Oeste 1.2 -- -- 93
2019-11-12 03:00:00 9.8 27 Oeste 46 Sudoeste 0.4 -- -- 91
2019-11-12 02:00:00 10 20 Sudoeste 45 Sudoeste 3 -- -- 90
2019-11-12 01:00:00 10.8 25 Oeste 63 Oeste 0.4 -- -- 86
2019-11-12 00:00:00 12.2 37 Oeste 59 Oeste 0 -- -- 73
2019-11-11 23:00:00 12.6 41 Oeste 50 Oeste 0 -- -- 67
2019-11-11 22:00:00 12.6 36 Oeste 51 Oeste 0 -- -- 63
2019-11-11 21:00:00 12.5 45 Noroeste 57 Noroeste 0 -- -- 67
2019-11-11 20:00:00 12.4 52 Noroeste 68 Noroeste 0 -- -- 65
2019-11-11 19:00:00 12.5 46 Noroeste 60 Oeste 0 -- -- 70
2019-11-11 18:00:00 11.4 49 Noroeste 72 Noroeste 0 -- -- 74
2019-11-11 17:00:00 12.8 48 Noroeste 69 Noroeste 0 -- -- 65
2019-11-11 16:00:00 13.1 54 Noroeste 71 Noroeste 0 -- -- 66
2019-11-11 15:00:00 12.5 54 Oeste 83 Oeste 0 -- -- 73
2019-11-11 14:00:00 12.4 64 Oeste 88 Noroeste 0 -- -- 70
2019-11-11 13:00:00 13.2 71 Noroeste 91 Noroeste 0.4 -- -- 76
2019-11-11 12:00:00 11.9 55 Oeste 84 Oeste 0.4 -- -- 97
2019-11-11 11:00:00 11.6 19 Oeste 36 Oeste 0 -- -- 90
2019-11-11 10:00:00 11.5 9 Sudoeste 32 Sudoeste 0 -- -- 87
2019-11-11 09:00:00 11.3 13 Sudoeste 35 Oeste 0 -- -- 79
2019-11-11 08:00:00 10.9 18 Sudoeste 39 Sudoeste 0 -- -- 79
2019-11-11 07:00:00 10 20 Sudoeste 38 Oeste 0 -- -- 89
2019-11-11 06:00:00 10.2 14 Oeste 42 Oeste 0.2 -- -- 89
2019-11-11 05:00:00 9.8 17 Sudoeste 32 Sudoeste 1.6 -- -- 91
2019-11-11 04:00:00 9.7 11 Oeste 37 Sudoeste 3.2 -- -- 93
2019-11-11 03:00:00 10.1 18 Sudoeste 36 Sudoeste 0 -- -- 87
2019-11-11 02:00:00 10.3 21 Oeste 39 Oeste 0 -- -- 85
2019-11-11 01:00:00 10.1 20 Oeste 40 Oeste 0 -- -- 85
2019-11-11 00:00:00 10.7 19 Oeste 31 Oeste 0 -- -- 78
2019-11-10 23:00:00 10.6 17 Oeste 36 Oeste 0 -- -- 82
2019-11-10 22:00:00 10.5 16 Noroeste 28 Noroeste 0 -- -- 84
2019-11-10 21:00:00 10.1 8 Sudoeste 33 Oeste 0.6 -- -- 82
2019-11-10 20:00:00 10.4 15 Noroeste 59 Noroeste 0.4 -- -- 77
2019-11-10 19:00:00 10.8 28 Oeste 52 Oeste 0 -- -- 78
2019-11-10 18:00:00 9.9 14 Oeste 32 Oeste 0.2 -- -- 83
2019-11-10 17:00:00 9.4 20 Oeste 49 Oeste 0.2 -- -- 84
2019-11-10 16:00:00 10.2 26 Oeste 37 Oeste 0.2 -- -- 78
2019-11-10 15:00:00 9.1 6 Norte 44 Noroeste 0.6 -- -- 82
2019-11-10 14:00:00 9.4 14 Norte 61 Noroeste 2.6 -- -- 81
2019-11-10 13:00:00 11.8 50 Oeste 80 Oeste 0.4 -- -- 68
2019-11-10 12:00:00 9.8 53 Noroeste 73 Noroeste 0.6 -- -- 87
2019-11-10 11:00:00 10.3 41 Oeste 70 Oeste 0.2 -- -- 75
2019-11-10 10:00:00 9.6 41 Oeste 98 Oeste 0.6 -- -- 83
2019-11-10 09:00:00 9.4 23 Oeste 59 Oeste 0.4 -- -- 87
2019-11-10 08:00:00 8.6 72 Oeste 109 Oeste 1.4 -- -- 91
2019-11-10 07:00:00 11 87 Oeste 109 Oeste 0.6 -- -- 74
2019-11-10 06:00:00 11.2 54 Oeste 76 Oeste 0.2 -- -- 74
2019-11-10 05:00:00 10.1 55 Noroeste 87 Noroeste 0.4 -- -- 82
2019-11-10 04:00:00 10.3 34 Oeste 86 Oeste 0.2 -- -- 77
2019-11-10 03:00:00 11.6 66 Oeste 93 Noroeste 0.4 -- -- 59
2019-11-10 02:00:00 11.7 37 Noroeste 83 Oeste 0.4 -- -- 65
2019-11-10 01:00:00 12 51 Noroeste 77 Noroeste 0 -- -- 68
2019-11-10 00:00:00 11.7 46 Oeste 80 Oeste 0.8 -- -- 72
2019-11-09 23:00:00 12 47 Oeste 68 Oeste 0 -- -- 69
2019-11-09 22:00:00 11.7 60 Noroeste 83 Oeste 0.8 -- -- 70
2019-11-09 21:00:00 11.2 52 Oeste 91 Oeste 1.6 -- -- 77
2019-11-09 20:00:00 10.8 63 Oeste 113 Oeste 5 -- -- 95
2019-11-09 19:00:00 11.1 71 Oeste 110 Oeste 1.6 -- -- 94
2019-11-09 18:00:00 12.8 72 Oeste 117 Oeste 1.2 -- -- 85
2019-11-09 17:00:00 14.3 94 Oeste 125 Oeste 0 -- -- 74
2019-11-09 16:00:00 14.5 109 Oeste 133 Oeste 1.8 -- -- 72
2019-11-09 15:00:00 11.5 31 Sudoeste 75 Oeste 0.8 -- -- 89
2019-11-09 14:00:00 10.2 26 Sur 45 Sudoeste 2.4 -- -- 90
2019-11-09 13:00:00 11.5 29 Sur 44 Sudoeste 0 -- -- 76
2019-11-09 12:00:00 10.5 17 Sudoeste 40 Sudoeste 0.6 -- -- 78
2019-11-09 11:00:00 12.8 12 Sudoeste 30 Sudoeste 0 -- -- 61
2019-11-09 10:00:00 11.3 12 Sudoeste 42 Sudoeste 0 -- -- 72
2019-11-09 09:00:00 10.4 20 Oeste 48 Oeste 0 -- -- 85
2019-11-09 08:00:00 10.2 23 Sudoeste 53 Oeste 0.2 -- -- 90
2019-11-09 07:00:00 10.5 28 Oeste 52 Oeste 2 -- -- 94
2019-11-09 06:00:00 11.5 26 Oeste 53 Oeste 0 -- -- 89
2019-11-09 05:00:00 12.4 48 Oeste 69 Oeste 0 -- -- 76
2019-11-09 04:00:00 11.5 42 Noroeste 75 Oeste 1.4 -- -- 82
2019-11-09 03:00:00 12.6 45 Oeste 73 Oeste 0 -- -- 75
2019-11-09 02:00:00 12.5 57 Oeste 78 Oeste 0 -- -- 76
2019-11-09 01:00:00 12.5 62 Oeste 79 Oeste 0 -- -- 78
2019-11-09 00:00:00 11.6 61 Oeste 88 Noroeste 4.6 -- -- 80
2019-11-08 23:00:00 11.3 75 Oeste 94 Oeste 0.2 -- -- 86
2019-11-08 22:00:00 11.7 69 Oeste 90 Oeste 0.2 -- -- 84
2019-11-08 21:00:00 11.7 68 Oeste 106 Oeste 2 -- -- 84
2019-11-08 20:00:00 11.7 78 Oeste 109 Oeste 6.6 -- -- 86
2019-11-08 19:00:00 12.4 72 Oeste 94 Oeste 0.2 -- -- 81
2019-11-08 18:00:00 11.7 71 Oeste 95 Noroeste 4 -- -- 85
2019-11-08 17:00:00 12 66 Noroeste 101 Oeste 0.4 -- -- 87
2019-11-08 16:00:00 10.8 73 Oeste 100 Oeste 1.8 -- -- 95
2019-11-08 15:00:00 12.6 66 Oeste 93 Oeste 0 -- -- 79
2019-11-08 14:00:00 12.4 75 Oeste 95 Oeste 0.6 -- -- 82
2019-11-08 13:00:00 10.5 63 Oeste 104 Oeste 6.4 -- -- 98
2019-11-08 12:00:00 11.1 97 Oeste 136 Oeste 5.4 -- -- 80
2019-11-08 11:00:00 10.5 77 Oeste 145 Oeste 4.6 -- -- 90
2019-11-08 10:00:00 10.7 53 Oeste 97 Oeste 3.2 -- -- 87
2019-11-08 09:00:00 9.9 49 Oeste 94 Oeste 1.8 -- -- 86
2019-11-08 08:00:00 9.7 44 Oeste 91 Oeste 1.8 -- -- 86
2019-11-08 07:00:00 9.4 34 Oeste 67 Oeste 0.8 -- -- 86
2019-11-08 06:00:00 8.8 35 Oeste 71 Oeste 1.4 -- -- 87
2019-11-08 05:00:00 8.8 38 Oeste 75 Oeste 1 -- -- 84
2019-11-08 04:00:00 9.1 32 Oeste 64 Sudoeste 1.4 -- -- 83
2019-11-08 03:00:00 8.4 30 Oeste 60 Oeste 0.4 -- -- 82
2019-11-08 02:00:00 8.1 35 Oeste 74 Oeste 1.6 -- -- 84
2019-11-08 01:00:00 9.5 35 Oeste 66 Oeste 0 -- -- 69
2019-11-08 00:00:00 9.9 32 Oeste 55 Oeste 0 -- -- 67